createdAt,value
2018-08-06T00:02:18.551Z,15.80
2018-08-06T00:04:47.341Z,15.70
2018-08-06T00:07:15.998Z,15.70
2018-08-06T00:09:44.608Z,15.70
2018-08-06T00:12:13.230Z,15.70
2018-08-06T00:14:41.859Z,15.70
2018-08-06T00:17:10.435Z,15.70
2018-08-06T00:19:39.579Z,15.60
2018-08-06T00:22:08.348Z,15.50
2018-08-06T00:24:36.978Z,15.50
2018-08-06T00:27:06.266Z,15.50
2018-08-06T00:29:34.867Z,15.50
2018-08-06T00:32:03.467Z,15.40
2018-08-06T00:34:32.048Z,15.40
2018-08-06T00:37:00.798Z,15.40
2018-08-06T00:39:29.395Z,15.30
2018-08-06T00:41:57.978Z,15.30
2018-08-06T00:44:26.562Z,15.20
2018-08-06T00:46:55.141Z,15.20
2018-08-06T00:49:23.914Z,15.10
2018-08-06T00:51:52.509Z,15.00
2018-08-06T00:54:21.226Z,15.00
2018-08-06T00:56:49.786Z,15.00
2018-08-06T00:59:18.371Z,14.90
2018-08-06T01:01:46.935Z,15.00
2018-08-06T01:04:15.519Z,14.90
2018-08-06T01:06:44.147Z,14.80
2018-08-06T01:09:12.742Z,14.90
2018-08-06T01:11:41.527Z,14.80
2018-08-06T01:14:10.129Z,14.80
2018-08-06T01:16:38.742Z,14.80
2018-08-06T01:19:07.420Z,14.80
2018-08-06T01:21:36.148Z,14.70
2018-08-06T01:26:32.978Z,14.70
2018-08-06T01:29:01.767Z,14.70
2018-08-06T01:31:30.326Z,14.70
2018-08-06T01:33:58.880Z,14.70
2018-08-06T01:36:27.488Z,14.70
2018-08-06T01:38:56.034Z,14.70
2018-08-06T01:41:24.620Z,14.70
2018-08-06T01:46:21.483Z,14.80
2018-08-06T01:48:50.210Z,14.80
2018-08-06T01:51:18.810Z,14.80
2018-08-06T01:53:47.490Z,14.80
2018-08-06T01:56:16.056Z,14.80
2018-08-06T01:58:44.639Z,14.80
2018-08-06T02:01:13.208Z,14.80
2018-08-06T02:03:41.908Z,14.70
2018-08-06T02:06:10.462Z,14.70
2018-08-06T02:08:39.027Z,14.70
2018-08-06T02:11:07.656Z,14.70
2018-08-06T02:13:36.307Z,14.60
2018-08-06T02:18:33.407Z,14.70
2018-08-06T02:21:02.330Z,14.60
2018-08-06T02:23:30.954Z,14.60
2018-08-06T02:25:59.579Z,14.60
2018-08-06T02:28:28.202Z,14.60
2018-08-06T02:30:56.787Z,14.60
2018-08-06T02:33:25.363Z,14.60
2018-08-06T02:35:53.947Z,14.60
2018-08-06T02:38:22.792Z,14.60
2018-08-06T02:40:51.483Z,14.60
2018-08-06T02:43:20.067Z,14.60
2018-08-06T02:45:48.853Z,14.60
2018-08-06T02:48:17.498Z,14.60
2018-08-06T02:53:14.324Z,14.60
2018-08-06T02:55:42.980Z,14.60
2018-08-06T02:58:11.574Z,14.60
2018-08-06T03:00:40.300Z,14.70
2018-08-06T03:03:08.872Z,14.70
2018-08-06T03:05:37.489Z,14.60
2018-08-06T03:10:34.642Z,14.60
2018-08-06T03:13:03.279Z,14.70
2018-08-06T03:15:31.897Z,14.60
2018-08-06T03:18:00.675Z,14.70
2018-08-06T03:20:29.247Z,14.70
2018-08-06T03:22:57.803Z,14.80
2018-08-06T03:25:26.378Z,14.80
2018-08-06T03:27:55.075Z,14.80
2018-08-06T03:30:23.686Z,14.80
2018-08-06T03:32:52.268Z,14.80
2018-08-06T03:35:21.063Z,14.80
2018-08-06T03:37:49.622Z,14.80
2018-08-06T03:40:18.325Z,14.90
2018-08-06T03:42:46.856Z,14.90
2018-08-06T03:45:15.456Z,14.90
2018-08-06T03:47:44.127Z,15.00
2018-08-06T03:52:42.760Z,15.00
2018-08-06T03:55:12.070Z,15.10
2018-08-06T03:57:41.246Z,15.10
2018-08-06T04:00:13.442Z,15.10
2018-08-06T04:02:42.834Z,15.10
2018-08-06T04:05:13.774Z,15.10
2018-08-06T04:07:42.417Z,15.10
2018-08-06T04:12:40.852Z,15.10
2018-08-06T04:15:10.156Z,15.10
2018-08-06T04:17:38.970Z,15.10
2018-08-06T04:20:08.930Z,15.10
2018-08-06T04:25:06.115Z,15.10
2018-08-06T04:27:35.123Z,15.10
2018-08-06T04:30:05.125Z,15.20
2018-08-06T04:32:33.720Z,15.20
2018-08-06T04:35:02.391Z,15.20
2018-08-06T04:37:31.031Z,15.20
2018-08-06T04:39:59.627Z,15.20
2018-08-06T04:42:28.253Z,15.20
2018-08-06T04:44:57.082Z,15.20
2018-08-06T04:47:25.713Z,15.20
2018-08-06T04:49:54.368Z,15.30
2018-08-06T04:52:23.244Z,15.30
2018-08-06T04:54:52.322Z,15.40
2018-08-06T04:57:20.986Z,15.40
2018-08-06T04:59:49.588Z,15.40
2018-08-06T05:02:18.266Z,15.40
2018-08-06T05:04:47.106Z,15.40
2018-08-06T05:12:13.586Z,15.50
2018-08-06T05:17:10.451Z,15.50
2018-08-06T05:19:39.063Z,15.50
2018-08-06T05:22:08.124Z,15.60
2018-08-06T05:27:05.051Z,15.50
2018-08-06T05:29:33.705Z,15.50
2018-08-06T05:32:02.375Z,15.40
2018-08-06T05:34:31.026Z,15.40
2018-08-06T05:36:59.666Z,15.40
2018-08-06T05:39:28.342Z,15.40
2018-08-06T05:41:57.015Z,15.50
2018-08-06T05:44:25.719Z,15.50
2018-08-06T05:46:54.418Z,15.60
2018-08-06T05:49:23.133Z,15.60
2018-08-06T05:51:51.755Z,15.70
2018-08-06T05:54:20.433Z,15.70
2018-08-06T05:59:17.563Z,15.80
2018-08-06T06:01:46.219Z,15.90
2018-08-06T06:04:14.862Z,16.00
2018-08-06T06:06:43.640Z,16.10
2018-08-06T06:14:09.495Z,16.20
2018-08-06T06:16:38.167Z,16.30
2018-08-06T06:19:07.204Z,16.30
2018-08-06T06:21:35.836Z,16.40
2018-08-06T06:24:04.497Z,16.50
2018-08-06T06:26:33.185Z,16.50
2018-08-06T06:29:01.846Z,16.70
2018-08-06T06:31:30.447Z,16.70
2018-08-06T06:33:59.327Z,16.80
2018-08-06T06:36:28.529Z,16.90
2018-08-06T06:38:57.217Z,16.90
2018-08-06T06:41:25.855Z,17.00
2018-08-06T06:43:54.547Z,17.00
2018-08-06T06:48:51.475Z,17.00
2018-08-06T06:51:20.055Z,17.00
2018-08-06T06:53:48.670Z,17.20
2018-08-06T06:56:17.327Z,17.40
2018-08-06T06:58:45.926Z,17.50
2018-08-06T07:01:14.587Z,17.60
2018-08-06T07:03:43.215Z,17.70
2018-08-06T07:08:40.355Z,17.70
2018-08-06T07:11:09.031Z,17.60
2018-08-06T07:13:37.800Z,17.70
2018-08-06T07:16:06.780Z,17.80
2018-08-06T07:18:35.453Z,18.00
2018-08-06T07:21:04.398Z,18.10
2018-08-06T07:23:33.042Z,17.90
2018-08-06T07:26:01.759Z,18.00
2018-08-06T07:28:30.433Z,18.20
2018-08-06T07:30:59.049Z,18.30
2018-08-06T07:33:27.914Z,18.20
2018-08-06T07:35:56.515Z,18.10
2018-08-06T07:38:25.066Z,18.10
2018-08-06T07:40:53.646Z,18.10
2018-08-06T07:43:22.279Z,18.00
2018-08-06T07:45:50.925Z,18.00
2018-08-06T07:48:19.542Z,18.10
2018-08-06T07:53:16.430Z,18.40
2018-08-06T07:55:45.023Z,18.50
2018-08-06T07:58:13.619Z,18.70
2018-08-06T08:00:42.223Z,18.90
2018-08-06T08:03:11.791Z,18.90
2018-08-06T08:05:40.450Z,19.10
2018-08-06T08:08:09.167Z,19.10
2018-08-06T08:10:37.775Z,19.00
2018-08-06T08:13:06.411Z,19.00
2018-08-06T08:15:35.284Z,19.10
2018-08-06T08:18:03.974Z,19.00
2018-08-06T08:20:32.598Z,19.10
2018-08-06T08:23:01.276Z,19.50
2018-08-06T08:25:30.129Z,19.70
2018-08-06T08:27:58.922Z,19.50
2018-08-06T08:30:27.595Z,19.60
2018-08-06T08:32:56.276Z,19.90
2018-08-06T08:35:30.707Z,20.40
2018-08-06T08:37:59.474Z,20.80
2018-08-06T08:40:28.463Z,21.10
2018-08-06T08:42:57.053Z,21.30
2018-08-06T08:45:25.734Z,21.50
2018-08-06T08:47:54.359Z,21.70
2018-08-06T08:50:22.919Z,21.70
2018-08-06T08:52:51.511Z,21.80
2018-08-06T08:55:20.827Z,22.00
2018-08-06T08:57:49.554Z,22.10
2018-08-06T09:00:20.101Z,22.10
2018-08-06T09:02:49.541Z,22.30
2018-08-06T09:05:18.874Z,22.20
2018-08-06T09:07:47.774Z,22.20
2018-08-06T09:12:46.113Z,22.30
2018-08-06T09:15:22.055Z,22.40
2018-08-06T09:17:50.699Z,22.70
2018-08-06T09:20:19.338Z,22.90
2018-08-06T09:22:48.443Z,22.70
2018-08-06T09:25:17.056Z,22.70
2018-08-06T09:27:47.326Z,22.20
2018-08-06T09:30:18.838Z,22.40
2018-08-06T09:35:18.709Z,22.60
2018-08-06T09:37:47.399Z,22.60
2018-08-06T09:40:17.546Z,22.70
2018-08-06T09:42:47.031Z,22.70
2018-08-06T09:45:16.862Z,22.90
2018-08-06T09:47:47.478Z,22.90
2018-08-06T09:50:16.874Z,23.00
2018-08-06T09:52:46.487Z,23.30
2018-08-06T09:55:19.183Z,23.10
2018-08-06T09:57:48.607Z,23.20
2018-08-06T10:00:23.819Z,23.10
2018-08-06T10:02:53.699Z,23.30
2018-08-06T10:05:23.435Z,23.50
2018-08-06T10:07:52.462Z,23.50
2018-08-06T10:10:21.168Z,23.70
2018-08-06T10:12:49.782Z,23.90
2018-08-06T10:15:19.010Z,24.00
2018-08-06T10:17:49.028Z,23.70
2018-08-06T10:20:18.984Z,24.10
2018-08-06T10:22:47.663Z,24.00
2018-08-06T10:27:45.710Z,24.40
2018-08-06T10:30:23.107Z,24.50
2018-08-06T10:32:51.628Z,24.30
2018-08-06T10:35:20.925Z,24.40
2018-08-06T10:37:49.579Z,24.40
2018-08-06T10:40:20.319Z,24.40
2018-08-06T10:42:49.414Z,24.50
2018-08-06T10:45:19.209Z,24.20
2018-08-06T10:47:48.112Z,24.50
2018-08-06T10:50:16.770Z,24.60
2018-08-06T10:52:45.424Z,24.40
2018-08-06T10:55:14.326Z,24.10
2018-08-06T10:57:43.992Z,24.10
2018-08-06T11:00:15.269Z,23.90
2018-08-06T11:02:44.089Z,24.20
2018-08-06T11:05:13.725Z,24.50
2018-08-06T11:07:42.342Z,24.70
2018-08-06T11:10:17.562Z,24.80
2018-08-06T11:12:46.223Z,24.60
2018-08-06T11:15:23.436Z,25.00
2018-08-06T11:17:52.122Z,25.10
2018-08-06T11:20:21.405Z,25.10
2018-08-06T11:22:50.091Z,25.00
2018-08-06T11:25:20.608Z,24.80
2018-08-06T11:27:49.574Z,24.60
2018-08-06T11:30:21.014Z,24.90
2018-08-06T11:32:50.140Z,24.80
2018-08-06T11:35:19.298Z,25.10
2018-08-06T11:37:47.910Z,25.10
2018-08-06T11:40:17.221Z,25.10
2018-08-06T11:42:46.823Z,24.80
2018-08-06T11:45:16.640Z,25.10
2018-08-06T11:47:45.276Z,25.40
2018-08-06T11:50:13.871Z,25.40
2018-08-06T11:52:42.484Z,25.50
2018-08-06T11:55:11.287Z,25.60
2018-08-06T11:57:40.063Z,25.40
2018-08-06T12:00:15.118Z,25.80
2018-08-06T12:02:43.903Z,25.70
2018-08-06T12:05:12.535Z,25.70
2018-08-06T12:10:12.598Z,25.50
2018-08-06T12:12:41.455Z,25.70
2018-08-06T12:17:39.893Z,26.00
2018-08-06T12:20:11.682Z,26.30
2018-08-06T12:22:41.773Z,26.40
2018-08-06T12:25:12.021Z,26.70
2018-08-06T12:27:41.193Z,26.20
2018-08-06T12:30:13.561Z,26.40
2018-08-06T12:32:42.764Z,26.40
2018-08-06T12:35:11.471Z,26.30
2018-08-06T12:37:40.313Z,26.10
2018-08-06T12:40:12.391Z,26.30
2018-08-06T12:42:41.180Z,26.30
2018-08-06T12:45:11.007Z,26.60
2018-08-06T12:47:40.243Z,26.60
2018-08-06T12:50:10.476Z,26.80
2018-08-06T12:52:39.946Z,26.90
2018-08-06T12:55:10.193Z,26.90
2018-08-06T12:57:39.799Z,27.20
2018-08-06T13:02:39.126Z,27.80
2018-08-06T13:07:36.052Z,27.50
2018-08-06T13:10:05.027Z,27.40
2018-08-06T13:12:33.846Z,26.90
2018-08-06T13:15:02.407Z,26.50
2018-08-06T13:17:31.007Z,26.70
2018-08-06T13:19:59.890Z,26.80
2018-08-06T13:22:28.514Z,26.80
2018-08-06T13:24:57.093Z,26.60
2018-08-06T13:27:25.667Z,26.70
2018-08-06T13:29:54.285Z,26.80
2018-08-06T13:32:23.142Z,26.80
2018-08-06T13:34:51.723Z,27.10
2018-08-06T13:37:20.340Z,27.20
2018-08-06T13:42:17.182Z,27.20
2018-08-06T13:44:45.821Z,27.00
2018-08-06T13:47:14.399Z,27.20
2018-08-06T13:49:42.999Z,26.60
2018-08-06T13:52:11.596Z,26.40
2018-08-06T13:57:08.603Z,26.50
2018-08-06T14:02:05.931Z,26.00
2018-08-06T14:04:34.565Z,26.10
2018-08-06T14:07:03.221Z,26.10
2018-08-06T14:09:31.754Z,26.10
2018-08-06T14:12:00.313Z,26.20
2018-08-06T14:14:28.876Z,26.30
2018-08-06T14:16:57.554Z,26.40
2018-08-06T14:19:26.122Z,26.60
2018-08-06T14:21:54.695Z,26.80
2018-08-06T14:24:23.287Z,26.80
2018-08-06T14:26:51.867Z,26.50
2018-08-06T14:29:20.434Z,26.50
2018-08-06T14:31:49.020Z,26.50
2018-08-06T14:34:17.724Z,26.30
2018-08-06T14:36:46.280Z,25.70
2018-08-06T14:39:15.130Z,25.20
2018-08-06T14:41:43.740Z,25.00
2018-08-06T14:44:12.410Z,25.00
2018-08-06T14:46:40.939Z,24.90
2018-08-06T14:49:09.632Z,24.80
2018-08-06T14:51:38.250Z,24.70
2018-08-06T14:54:06.896Z,24.90
2018-08-06T14:56:35.677Z,24.90
2018-08-06T14:59:04.375Z,24.60
2018-08-06T15:01:32.932Z,24.40
2018-08-06T15:04:01.548Z,24.30
2018-08-06T15:06:30.191Z,24.60
2018-08-06T15:11:27.120Z,24.60
2018-08-06T15:13:55.814Z,24.60
2018-08-06T15:16:24.404Z,24.80
2018-08-06T15:18:52.971Z,25.00
2018-08-06T15:21:21.531Z,25.10
2018-08-06T15:23:50.080Z,25.00
2018-08-06T15:26:18.703Z,24.60
2018-08-06T15:28:47.307Z,24.20
2018-08-06T15:31:15.935Z,24.00
2018-08-06T15:33:44.547Z,23.60
2018-08-06T15:36:13.208Z,23.20
2018-08-06T15:38:41.839Z,22.90
2018-08-06T15:41:10.894Z,23.00
2018-08-06T15:43:39.500Z,22.70
2018-08-06T15:46:08.122Z,22.50
2018-08-06T15:51:04.934Z,22.40
2018-08-06T15:53:33.793Z,22.30
2018-08-06T15:56:02.372Z,22.30
2018-08-06T15:58:30.946Z,22.10
2018-08-06T16:00:59.530Z,22.10
2018-08-06T16:03:28.429Z,22.10
2018-08-06T16:05:57.015Z,21.90
2018-08-06T16:08:25.582Z,22.10
2018-08-06T16:10:54.242Z,22.00
2018-08-06T16:15:51.034Z,21.90
2018-08-06T16:18:19.608Z,22.00
2018-08-06T16:20:48.191Z,21.90
2018-08-06T16:23:16.744Z,21.90
2018-08-06T16:25:45.398Z,21.90
2018-08-06T16:28:14.090Z,21.80
2018-08-06T16:30:42.718Z,21.80
2018-08-06T16:33:11.385Z,21.80
2018-08-06T16:35:40.084Z,21.80
2018-08-06T16:40:36.957Z,21.80
2018-08-06T16:45:33.862Z,21.80
2018-08-06T16:48:02.487Z,21.80
2018-08-06T16:50:31.115Z,21.80
2018-08-06T16:52:59.712Z,21.70
2018-08-06T16:55:28.296Z,21.70
2018-08-06T16:57:56.906Z,21.70
2018-08-06T17:00:25.505Z,21.50
2018-08-06T17:02:54.277Z,21.50
2018-08-06T17:05:23.148Z,21.50
2018-08-06T17:07:51.930Z,21.40
2018-08-06T17:10:21.410Z,21.30
2018-08-06T17:12:51.516Z,21.20
2018-08-06T17:17:50.339Z,21.20
2018-08-06T17:22:50.192Z,21.10
2018-08-06T17:25:19.038Z,21.10
2018-08-06T17:30:16.569Z,21.10
2018-08-06T17:32:45.596Z,21.00
2018-08-06T17:35:15.012Z,21.00
2018-08-06T17:40:15.123Z,20.90
2018-08-06T17:42:44.324Z,21.00
2018-08-06T17:45:19.458Z,21.00
2018-08-06T17:47:48.091Z,20.90
2018-08-06T17:50:19.833Z,20.80
2018-08-06T17:55:19.490Z,20.70
2018-08-06T17:57:48.583Z,20.70
2018-08-06T18:00:18.097Z,20.60
2018-08-06T18:02:47.175Z,20.60
2018-08-06T18:05:16.694Z,20.60
2018-08-06T18:07:45.790Z,20.60
2018-08-06T18:10:15.833Z,20.60
2018-08-06T18:12:45.227Z,20.60
2018-08-06T18:15:13.942Z,20.50
2018-08-06T18:17:42.566Z,20.50
2018-08-06T18:20:13.384Z,20.50
2018-08-06T18:22:42.147Z,20.50
2018-08-06T18:25:12.774Z,20.50
2018-08-06T18:27:41.970Z,20.40
2018-08-06T18:32:42.199Z,20.40
2018-08-06T18:35:12.747Z,20.30
2018-08-06T18:37:41.314Z,20.30
2018-08-06T18:40:10.711Z,20.30
2018-08-06T18:42:39.316Z,20.30
2018-08-06T18:45:11.613Z,20.20
2018-08-06T18:47:40.745Z,20.30
2018-08-06T18:50:10.989Z,20.20
2018-08-06T18:52:39.763Z,20.30
2018-08-06T18:55:09.671Z,20.30
2018-08-06T18:57:38.533Z,20.10
2018-08-06T19:00:09.824Z,20.20
2018-08-06T19:02:38.419Z,20.10
2018-08-06T19:05:07.891Z,20.10
2018-08-06T19:07:36.620Z,20.00
2018-08-06T19:10:06.255Z,20.00
2018-08-06T19:18:43.055Z,20.00
2018-08-06T19:21:11.671Z,19.90
2018-08-06T19:23:40.790Z,19.90
2018-08-06T19:26:09.494Z,19.80
2018-08-06T19:28:38.068Z,19.80
2018-08-06T19:31:11.951Z,19.80
2018-08-06T19:33:40.826Z,19.70
2018-08-06T19:36:09.387Z,19.70
2018-08-06T19:38:37.971Z,19.70
2018-08-06T19:41:06.843Z,19.60
2018-08-06T19:43:38.267Z,19.60
2018-08-06T19:46:07.810Z,19.60
2018-08-06T19:48:36.655Z,19.50
2018-08-06T19:51:05.288Z,19.40
2018-08-06T19:53:33.866Z,19.40
2018-08-06T19:56:07.731Z,19.30
2018-08-06T19:58:36.331Z,19.20
2018-08-06T20:01:05.133Z,19.20
2018-08-06T20:03:33.850Z,19.20
2018-08-06T20:08:30.722Z,19.10
2018-08-06T20:10:59.301Z,19.00
2018-08-06T20:15:56.233Z,19.00
2018-08-06T20:18:25.115Z,18.90
2018-08-06T20:20:53.760Z,18.90
2018-08-06T20:23:22.351Z,19.00
2018-08-06T20:25:51.293Z,18.90
2018-08-06T20:28:19.916Z,18.90
2018-08-06T20:30:48.567Z,18.90
2018-08-06T20:33:17.142Z,18.90
2018-08-06T20:35:45.891Z,18.80
2018-08-06T20:38:14.575Z,18.80
2018-08-06T20:40:43.123Z,18.60
2018-08-06T20:48:08.231Z,18.60
2018-08-06T20:50:36.815Z,18.60
2018-08-06T20:53:05.536Z,18.60
2018-08-06T20:55:34.090Z,18.60
2018-08-06T20:58:02.659Z,18.50
2018-08-06T21:00:31.347Z,18.50
2018-08-06T21:02:59.940Z,18.40
2018-08-06T21:05:28.594Z,18.40
2018-08-06T21:07:57.191Z,18.50
2018-08-06T21:10:25.815Z,18.50
2018-08-06T21:12:54.538Z,18.50
2018-08-06T21:15:23.102Z,18.50
2018-08-06T21:17:51.729Z,18.50
2018-08-06T21:20:20.326Z,18.50
2018-08-06T21:22:49.791Z,18.60
2018-08-06T21:25:18.462Z,18.60
2018-08-06T21:27:48.018Z,18.60
2018-08-06T21:30:19.822Z,18.60
2018-08-06T21:32:56.023Z,18.50
2018-08-06T21:35:25.928Z,18.50
2018-08-06T21:37:55.429Z,18.50
2018-08-06T21:40:24.937Z,18.50
2018-08-06T21:42:53.805Z,18.50
2018-08-06T21:45:22.382Z,18.60
2018-08-06T21:47:51.430Z,18.60
2018-08-06T21:50:20.054Z,18.60
2018-08-06T21:55:16.934Z,18.50
2018-08-06T21:57:45.590Z,18.50
2018-08-06T22:00:26.239Z,18.50
2018-08-06T22:02:54.819Z,18.40
2018-08-06T22:05:23.597Z,18.40
2018-08-06T22:07:52.236Z,18.30
2018-08-06T22:10:20.899Z,18.30
2018-08-06T22:12:49.542Z,18.30
2018-08-06T22:15:18.135Z,18.20
2018-08-06T22:17:46.705Z,18.20
2018-08-06T22:20:15.298Z,18.10
2018-08-06T22:22:44.192Z,18.20
2018-08-06T22:25:12.792Z,18.20
2018-08-06T22:27:41.449Z,18.00
2018-08-06T22:30:10.913Z,18.00
2018-08-06T22:32:39.615Z,18.00
2018-08-06T22:35:10.791Z,17.90
2018-08-06T22:37:39.660Z,17.90
2018-08-06T22:40:10.086Z,17.80
2018-08-06T22:42:39.080Z,17.80
2018-08-06T22:45:09.216Z,17.80
2018-08-06T22:47:37.792Z,17.80
2018-08-06T22:50:08.539Z,17.70
2018-08-06T22:52:37.420Z,17.60
2018-08-06T22:55:06.870Z,17.60
2018-08-06T22:57:35.562Z,17.60
2018-08-06T23:00:05.214Z,17.60
2018-08-06T23:05:02.028Z,17.50
2018-08-06T23:07:30.656Z,17.60
2018-08-06T23:09:59.259Z,17.50
2018-08-06T23:12:27.832Z,17.50
2018-08-06T23:14:56.464Z,17.40
2018-08-06T23:19:53.295Z,17.30
2018-08-06T23:22:21.942Z,17.30
2018-08-06T23:24:50.563Z,17.30
2018-08-06T23:27:19.143Z,17.20
2018-08-06T23:29:47.703Z,17.20
2018-08-06T23:32:16.475Z,17.20
2018-08-06T23:34:45.075Z,17.10
2018-08-06T23:37:13.657Z,17.10
2018-08-06T23:39:42.470Z,17.00
2018-08-06T23:42:11.083Z,17.00
2018-08-06T23:44:39.686Z,17.00
2018-08-06T23:47:08.266Z,17.00
2018-08-06T23:49:36.826Z,17.00
2018-08-06T23:52:06.047Z,17.00
2018-08-06T23:54:34.607Z,17.10
2018-08-06T23:57:03.347Z,17.00
2018-08-06T23:59:31.933Z,17.00
